Preview of NWS' New Version of Forecast
This preview is not operational and should not be used for support decisions.

Terminal Aerodrome Forecast (TAF)

Issued by National Weather Service (NWS)

                            
000
FTUS42 KILM 221120
TAFFLO
TAF
KFLO 221120Z 2212/2312 23007KT P6SM SKC
     FM221700 21011G17KT P6SM SCT050
     FM230000 20008KT P6SM BKN250=